Terminal Aerodrome Forecast
Issued by NWS

Home | Current Version | Previous Version | Text Only | Print | Product List | Glossary On
Versions: 1 2 3 4 5 6 7 8 9 10 11 12 13
000
FTUS44 KLZK 010520
TAFLIT
TAF
KLIT 010520Z 0106/0206 02005KT P6SM SCT040 BKN120
      TEMPO 0110/0114 5SM BR BKN020
     FM011400 02006KT P6SM VCTS SCT025 BKN040CB PROB30 0116/0122 5SM
      SHRA BR BKN020
     FM020300 02008KT P6SM FEW040=

USA.gov is the U.S. government's official web portal to all federal, state and local government web resources and services.